メインページ
METAR-TAF:

METAR-TAF

空港 :

Swift Current, サスカチュワン州, カナダ

緯度: 50-17N, 経度: 107-41W, 海抜: 818m

現時点の気象観測

当レポートは40分前の09:00(UTC)に作成
西/南西の風 14kt
気温 0°C
湿度 80%
気圧 1017 hPa
視程: 14.5km
晴天

METAR: CYYN 140900Z AUTO 25014KT 9SM CLR M00/M03 A3002 RMK ICG SLP196

時間: 03:40 (09:40 UTC)

予報

当レポートは3時間47分前の05:53(UTC)に作成
予報は14日の 06時(UTC)から 14日の 18時(UTC)まで有効
西の風 12kt
視程: 10km
晴天

TAF: CYYN 140553Z 1406/1418 26012KT P6SM SKC RMK FCST BASED ON AUTO OBS. NXT FCST BY 141200Z

4,000以上の空港の気象観測と天気予報(METAR報とTAF報)

利用可能な観測所は地図上に黄色い丸と赤い丸で示す。

丸の上にカーソルを重ねると観測所名を参照できる。

次にクリックすると気象観測と天気予報を参照できる。

マップの切り替え:黒色「×」印の緑ボタンをクリックして拡大、「-」印の緑ボタンをクリックして縮小、緑色の三角印をクリックして隣りの地図に切り替え


METAR-TAF: